Time,TemperatureF,DewpointF,PressureIn,WindDirection,WindDirectionDegrees,WindSpeedMPH,WindSpeedGustMPH,Humidity,HourlyPrecipIn,Conditions,Clouds,dailyrainin,SoftwareType,DateUTC
2013-11-02 00:03:00,71.3,71.0,29.77,WNW,297,0.0,1.0,98,0.23,,,0.00,weatherlink.com 1.10,2013-11-02 04:03:00,
2013-11-02 00:18:00,71.3,71.0,29.77,WNW,288,0.0,1.0,98,0.17,,,0.01,weatherlink.com 1.10,2013-11-02 04:18:00,
2013-11-02 00:34:00,70.9,70.0,29.77,West,265,1.0,4.0,98,0.16,,,0.02,weatherlink.com 1.10,2013-11-02 04:34:00,
2013-11-02 00:49:00,70.2,70.0,29.76,WSW,241,0.0,3.0,98,0.12,,,0.04,weatherlink.com 1.10,2013-11-02 04:49:00,
2013-11-02 01:04:00,69.8,69.0,29.76,WSW,240,0.0,2.0,98,0.06,,,0.06,weatherlink.com 1.10,2013-11-02 05:04:00,
2013-11-02 01:19:00,69.3,69.0,29.77,WNW,298,0.0,3.0,98,0.11,,,0.12,weatherlink.com 1.10,2013-11-02 05:19:00,
2013-11-02 01:34:00,68.5,67.0,29.77,West,276,3.0,7.0,96,0.18,,,0.20,weatherlink.com 1.10,2013-11-02 05:34:00,
2013-11-02 01:49:00,67.8,67.0,29.77,West,264,1.0,3.0,97,0.21,,,0.25,weatherlink.com 1.10,2013-11-02 05:49:00,
2013-11-02 02:04:00,66.7,66.0,29.77,WSW,239,0.0,5.0,96,0.29,,,0.35,weatherlink.com 1.10,2013-11-02 06:04:00,
2013-11-02 02:19:00,66.1,65.0,29.77,WNW,293,0.0,5.0,97,0.35,,,0.47,weatherlink.com 1.10,2013-11-02 06:19:00,
2013-11-02 02:34:00,66.1,66.0,29.77,WSW,252,0.0,0.0,98,0.33,,,0.54,weatherlink.com 1.10,2013-11-02 06:34:00,
2013-11-02 02:49:00,66.2,66.0,29.76,NW,309,0.0,1.0,98,0.38,,,0.63,weatherlink.com 1.10,2013-11-02 06:49:00,
2013-11-02 03:04:00,66.1,66.0,29.74,WNW,293,0.0,1.0,98,0.33,,,0.68,weatherlink.com 1.10,2013-11-02 07:04:00,
2013-11-02 03:19:00,66.2,66.0,29.76,WNW,293,0.0,1.0,98,0.21,,,0.68,weatherlink.com 1.10,2013-11-02 07:19:00,
2013-11-02 03:34:00,66.2,66.0,29.75,West,271,0.0,3.0,98,0.17,,,0.71,weatherlink.com 1.10,2013-11-02 07:34:00,
2013-11-02 03:49:00,66.2,66.0,29.76,West,271,0.0,0.0,99,0.10,,,0.73,weatherlink.com 1.10,2013-11-02 07:49:00,
2013-11-02 04:04:00,66.3,66.0,29.75,West,271,0.0,0.0,99,0.06,,,0.74,weatherlink.com 1.10,2013-11-02 08:04:00,
2013-11-02 04:19:00,66.3,66.0,29.76,West,271,0.0,0.0,99,0.06,,,0.74,weatherlink.com 1.10,2013-11-02 08:19:00,
2013-11-02 04:34:00,66.4,66.0,29.75,West,266,0.0,1.0,99,0.03,,,0.74,weatherlink.com 1.10,2013-11-02 08:34:00,
2013-11-02 04:49:00,66.6,66.0,29.75,West,276,0.0,2.0,99,0.01,,,0.74,weatherlink.com 1.10,2013-11-02 08:49:00,
2013-11-02 05:04:00,66.5,66.0,29.75,West,266,0.0,1.0,99,0.00,,,0.74,weatherlink.com 1.10,2013-11-02 09:04:00,
2013-11-02 05:19:00,66.3,66.0,29.76,WNW,290,0.0,1.0,99,0.00,,,0.74,weatherlink.com 1.10,2013-11-02 09:19:00,
2013-11-02 05:34:00,66.2,66.0,29.77,West,279,0.0,2.0,99,0.00,,,0.74,weatherlink.com 1.10,2013-11-02 09:34:00,
2013-11-02 05:49:00,66.0,66.0,29.77,WSW,238,0.0,1.0,99,0.00,,,0.74,weatherlink.com 1.10,2013-11-02 09:49:00,
2013-11-02 06:04:00,65.8,66.0,29.77,WSW,238,0.0,0.0,99,0.00,,,0.74,weatherlink.com 1.10,2013-11-02 10:04:00,
2013-11-02 06:19:00,65.5,65.0,29.77,WSW,238,0.0,0.0,99,0.00,,,0.74,weatherlink.com 1.10,2013-11-02 10:19:00,
2013-11-02 06:34:00,65.3,65.0,29.78,WSW,238,0.0,1.0,99,0.00,,,0.74,weatherlink.com 1.10,2013-11-02 10:34:00,
2013-11-02 06:49:00,65.1,65.0,29.77,West,276,0.0,0.0,99,0.00,,,0.74,weatherlink.com 1.10,2013-11-02 10:49:00,
2013-11-02 07:04:00,65.0,65.0,29.80,West,259,0.0,1.0,99,0.00,,,0.74,weatherlink.com 1.10,2013-11-02 11:04:00,
2013-11-02 07:19:00,65.0,65.0,29.79,West,259,0.0,1.0,99,0.00,,,0.74,weatherlink.com 1.10,2013-11-02 11:19:00,
2013-11-02 07:34:00,64.7,64.0,29.80,West,276,0.0,3.0,99,0.00,,,0.74,weatherlink.com 1.10,2013-11-02 11:34:00,
2013-11-02 07:49:00,64.5,64.0,29.80,WSW,255,0.0,5.0,99,0.00,,,0.74,weatherlink.com 1.10,2013-11-02 11:49:00,
2013-11-02 08:04:00,64.4,64.0,29.80,West,276,0.0,1.0,99,0.00,,,0.74,weatherlink.com 1.10,2013-11-02 12:04:00,
2013-11-02 08:19:00,64.3,64.0,29.81,West,275,0.0,1.0,99,0.00,,,0.74,weatherlink.com 1.10,2013-11-02 12:19:00,
2013-11-02 08:34:00,64.2,64.0,29.82,WNW,284,0.0,2.0,99,0.00,,,0.74,weatherlink.com 1.10,2013-11-02 12:34:00,
2013-11-02 08:49:00,64.2,64.0,29.81,WNW,300,0.0,3.0,99,0.00,,,0.74,weatherlink.com 1.10,2013-11-02 12:49:00,
2013-11-02 09:04:00,64.1,64.0,29.84,WSW,250,0.0,1.0,98,0.00,,,0.74,weatherlink.com 1.10,2013-11-02 13:04:00,
2013-11-02 09:19:00,64.0,64.0,29.84,WSW,245,0.0,2.0,98,0.00,,,0.74,weatherlink.com 1.10,2013-11-02 13:19:00,
2013-11-02 09:34:00,64.1,64.0,29.84,WNW,288,0.0,2.0,98,0.00,,,0.74,weatherlink.com 1.10,2013-11-02 13:34:00,
2013-11-02 09:49:00,64.1,63.0,29.84,West,270,0.0,2.0,97,0.00,,,0.74,weatherlink.com 1.10,2013-11-02 13:49:00,
2013-11-02 10:04:00,64.3,64.0,29.84,WNW,283,0.0,1.0,97,0.00,,,0.74,weatherlink.com 1.10,2013-11-02 14:04:00,
2013-11-02 10:19:00,64.5,64.0,29.83,West,281,0.0,1.0,97,0.00,,,0.74,weatherlink.com 1.10,2013-11-02 14:19:00,
2013-11-02 10:34:00,64.6,64.0,29.83,WNW,290,1.0,3.0,96,0.00,,,0.74,weatherlink.com 1.10,2013-11-02 14:34:00,
2013-11-02 10:49:00,64.7,64.0,29.83,West,274,0.0,1.0,96,0.00,,,0.74,weatherlink.com 1.10,2013-11-02 14:49:00,
2013-11-02 11:04:00,65.1,63.0,29.84,WNW,297,0.0,4.0,93,0.00,,,0.74,weatherlink.com 1.10,2013-11-02 15:04:00,
2013-11-02 11:19:00,65.8,64.0,29.84,WSW,250,0.0,1.0,93,0.00,,,0.74,weatherlink.com 1.10,2013-11-02 15:19:00,
2013-11-02 11:34:00,65.9,63.0,29.84,WSW,238,0.0,5.0,90,0.00,,,0.74,weatherlink.com 1.10,2013-11-02 15:34:00,
2013-11-02 11:49:00,66.1,63.0,29.83,West,269,0.0,3.0,90,0.00,,,0.74,weatherlink.com 1.10,2013-11-02 15:49:00,
2013-11-02 12:04:00,66.8,63.0,29.82,WNW,283,0.0,2.0,88,0.00,,,0.74,weatherlink.com 1.10,2013-11-02 16:04:00,
2013-11-02 12:20:00,67.9,63.0,29.81,NNW,346,1.0,2.0,83,0.00,,,0.74,weatherlink.com 1.10,2013-11-02 16:20:00,
2013-11-02 12:35:00,68.8,64.0,29.81,WSW,252,3.0,3.0,84,0.00,,,0.74,weatherlink.com 1.10,2013-11-02 16:35:00,
2013-11-02 12:50:00,69.5,64.0,29.82,SSW,197,0.0,1.0,83,0.00,,,0.74,weatherlink.com 1.10,2013-11-02 16:50:00,
2013-11-02 13:05:00,70.3,63.0,29.81,WNW,288,0.0,2.0,78,0.00,,,0.74,weatherlink.com 1.10,2013-11-02 17:05:00,
2013-11-02 13:20:00,69.6,62.0,29.81,WNW,300,2.0,5.0,78,0.00,,,0.74,weatherlink.com 1.10,2013-11-02 17:20:00,
2013-11-02 13:35:00,69.6,61.0,29.80,West,263,0.0,2.0,75,0.00,,,0.74,weatherlink.com 1.10,2013-11-02 17:35:00,
2013-11-02 13:50:00,70.2,61.0,29.80,West,259,1.0,2.0,73,0.00,,,0.74,weatherlink.com 1.10,2013-11-02 17:50:00,
2013-11-02 14:05:00,70.4,62.0,29.80,WSW,240,0.0,2.0,75,0.00,,,0.74,weatherlink.com 1.10,2013-11-02 18:05:00,
2013-11-02 14:20:00,70.2,61.0,29.79,NW,310,0.0,2.0,73,0.00,,,0.74,weatherlink.com 1.10,2013-11-02 18:20:00,
2013-11-02 14:35:00,70.4,62.0,29.80,SW,224,0.0,1.0,74,0.00,,,0.74,weatherlink.com 1.10,2013-11-02 18:35:00,
2013-11-02 14:50:00,69.7,60.0,29.78,WNW,292,0.0,1.0,72,0.00,,,0.74,weatherlink.com 1.10,2013-11-02 18:50:00,
2013-11-02 15:05:00,69.7,61.0,29.77,West,266,0.0,1.0,74,0.00,,,0.74,weatherlink.com 1.10,2013-11-02 19:05:00,
2013-11-02 15:20:00,69.6,61.0,29.79,West,278,0.0,2.0,74,0.00,,,0.74,weatherlink.com 1.10,2013-11-02 19:20:00,
2013-11-02 15:35:00,69.2,61.0,29.78,West,265,0.0,2.0,75,0.00,,,0.74,weatherlink.com 1.10,2013-11-02 19:35:00,
2013-11-02 15:50:00,68.8,61.0,29.78,West,276,0.0,1.0,76,0.00,,,0.74,weatherlink.com 1.10,2013-11-02 19:50:00,
2013-11-02 16:05:00,69.2,60.0,29.78,WSW,243,0.0,2.0,73,0.00,,,0.74,weatherlink.com 1.10,2013-11-02 20:05:00,
2013-11-02 16:20:00,69.1,59.0,29.79,SW,231,1.0,3.0,70,0.00,,,0.74,weatherlink.com 1.10,2013-11-02 20:20:00,
2013-11-02 16:35:00,69.4,59.0,29.80,West,264,0.0,3.0,69,0.00,,,0.74,weatherlink.com 1.10,2013-11-02 20:35:00,
2013-11-02 16:50:00,69.2,57.0,29.81,WNW,297,1.0,4.0,66,0.00,,,0.74,weatherlink.com 1.10,2013-11-02 20:50:00,
2013-11-02 17:05:00,69.6,58.0,29.81,WSW,257,0.0,3.0,67,0.00,,,0.74,weatherlink.com 1.10,2013-11-02 21:05:00,
2013-11-02 17:20:00,69.7,60.0,29.81,West,265,0.0,1.0,71,0.00,,,0.74,weatherlink.com 1.10,2013-11-02 21:20:00,
2013-11-02 17:35:00,68.5,59.0,29.81,West,264,0.0,0.0,72,0.00,,,0.74,weatherlink.com 1.10,2013-11-02 21:35:00,
2013-11-02 17:50:00,66.7,60.0,29.81,West,264,0.0,0.0,78,0.00,,,0.74,weatherlink.com 1.10,2013-11-02 21:50:00,
2013-11-02 18:05:00,65.1,60.0,29.82,West,264,0.0,0.0,82,0.00,,,0.74,weatherlink.com 1.10,2013-11-02 22:05:00,
2013-11-02 18:20:00,63.6,60.0,29.82,West,264,0.0,0.0,88,0.00,,,0.74,weatherlink.com 1.10,2013-11-02 22:20:00,
2013-11-02 18:35:00,62.2,59.0,29.82,West,264,0.0,0.0,90,0.00,,,0.74,weatherlink.com 1.10,2013-11-02 22:35:00,
2013-11-02 18:50:00,61.2,59.0,29.83,West,264,0.0,0.0,93,0.00,,,0.74,weatherlink.com 1.10,2013-11-02 22:50:00,
2013-11-02 19:05:00,60.3,59.0,29.84,West,264,0.0,0.0,94,0.00,,,0.74,weatherlink.com 1.10,2013-11-02 23:05:00,
2013-11-02 19:20:00,59.8,58.0,29.85,West,264,0.0,0.0,94,0.00,,,0.74,weatherlink.com 1.10,2013-11-02 23:20:00,
2013-11-02 19:35:00,59.2,58.0,29.86,West,264,0.0,0.0,94,0.00,,,0.74,weatherlink.com 1.10,2013-11-02 23:35:00,
2013-11-02 19:50:00,58.4,57.0,29.86,West,264,0.0,0.0,95,0.00,,,0.74,weatherlink.com 1.10,2013-11-02 23:50:00,
2013-11-02 20:05:00,57.9,57.0,29.87,West,264,0.0,0.0,96,0.00,,,0.74,weatherlink.com 1.10,2013-11-03 00:05:00,
2013-11-02 20:20:00,57.7,57.0,29.88,West,264,0.0,0.0,97,0.00,,,0.74,weatherlink.com 1.10,2013-11-03 00:20:00,
2013-11-02 20:35:00,57.4,57.0,29.88,West,264,0.0,0.0,97,0.00,,,0.74,weatherlink.com 1.10,2013-11-03 00:35:00,
2013-11-02 20:50:00,57.1,56.0,29.89,West,264,0.0,0.0,97,0.00,,,0.74,weatherlink.com 1.10,2013-11-03 00:50:00,
2013-11-02 21:05:00,56.6,56.0,29.90,West,264,0.0,0.0,97,0.00,,,0.74,weatherlink.com 1.10,2013-11-03 01:05:00,
2013-11-02 21:20:00,56.5,56.0,29.91,NNW,336,0.0,0.0,97,0.00,,,0.74,weatherlink.com 1.10,2013-11-03 01:20:00,
2013-11-02 21:35:00,55.8,55.0,29.92,NNW,336,0.0,0.0,97,0.00,,,0.74,weatherlink.com 1.10,2013-11-03 01:35:00,
2013-11-02 21:50:00,55.0,54.0,29.93,NNW,336,0.0,0.0,97,0.00,,,0.74,weatherlink.com 1.10,2013-11-03 01:50:00,
2013-11-02 22:06:00,54.4,54.0,29.94,NNW,336,0.0,0.0,97,0.00,,,0.74,weatherlink.com 1.10,2013-11-03 02:06:00,
2013-11-02 22:21:00,54.1,54.0,29.95,NNW,336,0.0,0.0,98,0.00,,,0.74,weatherlink.com 1.10,2013-11-03 02:21:00,
2013-11-02 22:36:00,53.7,53.0,29.95,NNW,336,0.0,0.0,98,0.00,,,0.74,weatherlink.com 1.10,2013-11-03 02:36:00,
2013-11-02 22:51:00,53.4,53.0,29.95,NNW,336,0.0,0.0,98,0.00,,,0.74,weatherlink.com 1.10,2013-11-03 02:51:00,
2013-11-02 23:06:00,52.9,52.0,29.96,NNW,336,0.0,0.0,98,0.00,,,0.74,weatherlink.com 1.10,2013-11-03 03:06:00,
2013-11-02 23:21:00,52.6,52.0,29.96,NNW,336,0.0,0.0,98,0.00,,,0.74,weatherlink.com 1.10,2013-11-03 03:21:00,
2013-11-02 23:36:00,52.0,52.0,29.96,NNW,336,0.0,0.0,98,0.00,,,0.74,weatherlink.com 1.10,2013-11-03 03:36:00,
2013-11-02 23:51:00,51.6,51.0,29.96,NNW,336,0.0,0.0,98,0.00,,,0.74,weatherlink.com 1.10,2013-11-03 03:51:00,